Time;durP1;ratioP1;P1;durP2;ratioP2;P2;SDS_P1;SDS_P2;PMS_P1;PMS_P2;Temp;Humidity;BMP_temperature;BMP_pressure;BME280_temperature;BME280_humidity;BME280_pressure;Samples;Min_cycle;Max_cycle;Signal;HPM_P1;HPM_P2
2022/08/14 00:00:11;;;;;;;15.80;10.65;;;589.20;2432.00;;;;;;4985256;28;20022;-79
2022/08/14 00:02:36;;;;;;;11.35;10.15;;;589.10;2432.00;;;;;;4965189;28;20029;-81
2022/08/14 00:05:09;;;;;;;12.88;11.52;;;589.00;2432.00;;;;;;4967297;28;20019;-79
2022/08/14 00:07:35;;;;;;;13.73;11.38;;;588.90;2432.00;;;;;;4981814;28;20031;-80
2022/08/14 00:10:03;;;;;;;13.05;11.00;;;588.90;2432.00;;;;;;4968621;28;20022;-82
2022/08/14 00:12:32;;;;;;;12.73;11.43;;;588.80;2432.00;;;;;;4965534;28;20374;-78
2022/08/14 00:14:58;;;;;;;12.93;11.40;;;564.10;2432.00;;;;;;4969383;28;20022;-81
2022/08/14 00:17:25;;;;;;;13.10;11.02;;;564.10;2432.00;;;;;;4966565;28;20117;-84
2022/08/14 00:19:51;;;;;;;13.38;10.57;;;564.00;2432.00;;;;;;4986203;28;20109;-81
2022/08/14 00:22:18;;;;;;;13.13;11.68;;;564.00;2432.00;;;;;;4966652;28;20539;-82
2022/08/14 00:24:44;;;;;;;14.05;12.23;;;564.10;2432.00;;;;;;4969090;28;20095;-83
2022/08/14 00:27:11;;;;;;;15.27;11.20;;;564.00;2432.00;;;;;;4974894;28;20138;-81
2022/08/14 00:29:36;;;;;;;19.85;13.23;;;564.00;2432.00;;;;;;4967529;28;20105;-83
2022/08/14 00:32:03;;;;;;;14.43;12.65;;;563.80;2432.00;;;;;;4965058;28;20134;-81
2022/08/14 00:34:28;;;;;;;17.95;12.95;;;564.00;2432.00;;;;;;4968072;28;20050;-81
2022/08/14 00:36:57;;;;;;;16.67;13.75;;;564.00;2432.00;;;;;;4968945;28;20057;-79
2022/08/14 00:39:23;;;;;;;15.27;12.57;;;563.90;2432.00;;;;;;4973069;28;20054;-81
2022/08/14 00:41:49;;;;;;;16.48;13.63;;;564.00;2432.00;;;;;;4971770;28;20094;-80
2022/08/14 00:44:16;;;;;;;15.73;13.35;;;563.90;2432.00;;;;;;4989947;28;20027;-81
2022/08/14 00:46:41;;;;;;;15.75;12.98;;;564.00;2432.00;;;;;;4972725;28;20035;-81
2022/08/14 00:49:08;;;;;;;18.52;14.27;;;564.00;2432.00;;;;;;4971270;28;20034;-81
2022/08/14 00:51:34;;;;;;;19.92;14.40;;;564.00;2432.00;;;;;;4990058;28;20038;-82
2022/08/14 00:54:01;;;;;;;17.60;14.02;;;564.00;2432.00;;;;;;4990845;28;20023;-81
2022/08/14 00:56:28;;;;;;;14.40;12.85;;;564.00;2432.00;;;;;;4972322;28;20022;-82
2022/08/14 00:58:55;;;;;;;18.80;14.02;;;564.00;2432.00;;;;;;4989476;28;20033;-80
2022/08/14 01:01:22;;;;;;;16.83;13.00;;;564.00;2432.00;;;;;;4971772;28;20096;-80
2022/08/14 01:03:47;;;;;;;17.70;13.32;;;564.00;2432.00;;;;;;4990425;28;20018;-81
2022/08/14 01:06:15;;;;;;;21.40;13.57;;;564.00;2432.00;;;;;;4989185;28;20097;-80
2022/08/14 01:08:43;;;;;;;17.27;13.10;;;564.00;2432.00;;;;;;4972974;28;20029;-81
2022/08/14 01:11:14;;;;;;;16.50;12.93;;;564.00;2432.00;;;;;;4989131;28;20059;-81
2022/08/14 01:13:42;;;;;;;16.27;13.30;;;564.10;2432.00;;;;;;4971978;28;20537;-82
2022/08/14 01:16:11;;;;;;;16.02;12.95;;;564.00;2432.00;;;;;;4972634;28;20044;-81
2022/08/14 01:21:46;;;;;;;14.23;12.57;;;564.00;2432.00;;;;;;4991245;28;20036;-83
2022/08/14 01:24:18;;;;;;;18.55;12.93;;;564.00;2432.00;;;;;;4990225;28;20035;-82
2022/08/14 01:26:45;;;;;;;15.75;13.05;;;564.00;2432.00;;;;;;4972492;28;20033;-79
2022/08/14 01:29:12;;;;;;;13.75;11.30;;;563.90;2432.00;;;;;;4972126;28;20022;-80
2022/08/14 01:32:03;;;;;;;15.10;12.52;;;564.00;2432.00;;;;;;4971782;28;20097;-80
2022/08/14 01:34:27;;;;;;;13.65;11.65;;;564.00;2432.00;;;;;;4990994;28;20015;-80
2022/08/14 01:36:54;;;;;;;15.02;12.10;;;564.00;2432.00;;;;;;4985368;28;20027;-78
2022/08/14 01:39:20;;;;;;;13.18;10.88;;;564.10;2432.00;;;;;;4972338;28;20036;-79
2022/08/14 01:41:54;;;;;;;12.95;11.15;;;564.10;2432.00;;;;;;4988918;28;20043;-80
2022/08/14 01:44:28;;;;;;;12.38;11.13;;;588.80;2432.00;;;;;;4972175;28;20081;-79
2022/08/14 01:46:57;;;;;;;11.02;9.82;;;588.80;2432.00;;;;;;4972798;28;20130;-82
2022/08/14 01:49:24;;;;;;;14.00;11.13;;;564.00;2432.00;;;;;;4968189;28;20035;-81
2022/08/14 01:51:55;;;;;;;14.20;10.82;;;564.00;2432.00;;;;;;4969177;28;20042;-82
2022/08/14 01:54:23;;;;;;;12.43;10.20;;;564.00;2432.00;;;;;;4973681;28;20108;-80
2022/08/14 01:56:57;;;;;;;15.70;10.98;;;564.00;2432.00;;;;;;4967552;28;20385;-80
2022/08/14 01:59:32;;;;;;;15.15;10.45;;;564.10;2432.00;;;;;;4970244;28;20055;-80
2022/08/14 02:02:01;;;;;;;12.02;9.40;;;564.10;2432.00;;;;;;4968584;28;20019;-81
2022/08/14 02:04:29;;;;;;;14.55;10.70;;;564.00;2432.00;;;;;;4980046;28;20031;-81
2022/08/14 02:07:08;;;;;;;11.43;10.23;;;564.10;2432.00;;;;;;4971241;28;20483;-85
2022/08/14 02:09:37;;;;;;;11.57;10.38;;;564.00;2432.00;;;;;;4978842;28;20117;-81
2022/08/14 02:12:05;;;;;;;11.32;9.88;;;564.10;2432.00;;;;;;4978419;28;20031;-82
2022/08/14 02:14:32;;;;;;;13.10;10.80;;;564.10;2432.00;;;;;;4978372;28;20098;-82
2022/08/14 02:16:59;;;;;;;14.88;10.52;;;564.00;2432.00;;;;;;4978326;28;20137;-82
2022/08/14 02:19:26;;;;;;;11.50;10.30;;;564.00;2432.00;;;;;;4978103;28;20487;-82
2022/08/14 02:21:56;;;;;;;12.25;9.88;;;564.00;2432.00;;;;;;4978168;28;20038;-82
2022/08/14 02:24:31;;;;;;;11.35;9.57;;;564.00;2432.00;;;;;;4977993;28;20113;-82
2022/08/14 02:26:59;;;;;;;14.43;10.55;;;564.00;2432.00;;;;;;4976037;28;20023;-83
2022/08/14 02:29:29;;;;;;;11.65;9.43;;;564.00;2432.00;;;;;;4978279;28;20026;-81
2022/08/14 02:31:58;;;;;;;14.52;9.45;;;564.00;2432.00;;;;;;4995023;28;20369;-79
2022/08/14 02:34:29;;;;;;;11.98;9.68;;;564.00;2432.00;;;;;;4993009;28;20073;-81
2022/08/14 02:36:58;;;;;;;13.52;10.80;;;564.00;2432.00;;;;;;4976963;28;20432;-81
2022/08/14 02:39:25;;;;;;;10.73;9.40;;;564.00;2432.00;;;;;;4977526;28;20027;-79
2022/08/14 02:41:51;;;;;;;11.05;9.80;;;564.00;2432.00;;;;;;4994120;28;20101;-81
2022/08/14 02:44:19;;;;;;;10.07;8.98;;;564.00;2432.00;;;;;;4978810;28;20392;-80
2022/08/14 02:46:46;;;;;;;11.25;8.95;;;563.80;2432.00;;;;;;4977595;28;20084;-80
2022/08/14 02:49:12;;;;;;;11.93;9.82;;;563.90;2432.00;;;;;;4991580;28;20097;-82
2022/08/14 02:51:38;;;;;;;11.85;9.68;;;563.90;2432.00;;;;;;4981410;28;20607;-81
2022/08/14 02:54:06;;;;;;;13.43;9.93;;;563.90;2432.00;;;;;;4996000;28;20033;-80
2022/08/14 02:56:32;;;;;;;10.82;9.38;;;563.90;2432.00;;;;;;4967134;28;20095;-81
2022/08/14 02:59:00;;;;;;;11.02;9.23;;;563.80;2432.00;;;;;;4976202;28;20150;-81
2022/08/14 03:01:27;;;;;;;11.55;9.35;;;563.90;2432.00;;;;;;4958626;28;20081;-80
2022/08/14 03:03:54;;;;;;;11.48;9.23;;;563.80;2432.00;;;;;;4960685;28;20089;-84
2022/08/14 03:06:24;;;;;;;14.48;10.23;;;563.80;2432.00;;;;;;4978300;28;20022;-81
2022/08/14 03:08:52;;;;;;;11.18;8.80;;;563.80;2432.00;;;;;;4978039;28;20472;-80
2022/08/14 03:11:19;;;;;;;10.73;9.63;;;563.70;2432.00;;;;;;4977901;28;20038;-80
2022/08/14 03:13:50;;;;;;;10.43;8.85;;;563.70;2432.00;;;;;;4977834;28;20077;-83
2022/08/14 03:16:19;;;;;;;11.68;9.52;;;563.60;2432.00;;;;;;4974391;28;20249;-81
2022/08/14 03:18:47;;;;;;;13.88;9.63;;;563.70;2432.00;;;;;;4995166;28;20109;-81
2022/08/14 03:21:15;;;;;;;11.20;9.57;;;563.70;2432.00;;;;;;4977815;28;20090;-82
2022/08/14 03:23:46;;;;;;;10.02;8.55;;;563.70;2432.00;;;;;;4977306;28;20052;-81
2022/08/14 03:26:17;;;;;;;11.20;9.52;;;563.60;2432.00;;;;;;4976854;28;20034;-80
2022/08/14 03:28:45;;;;;;;9.98;8.98;;;563.50;2432.00;;;;;;4977122;28;20085;-81
2022/08/14 03:31:12;;;;;;;10.95;9.13;;;563.40;2432.00;;;;;;4977362;28;20130;-82
2022/08/14 03:33:39;;;;;;;10.98;8.88;;;563.50;2432.00;;;;;;4993887;28;20027;-82
2022/08/14 03:36:14;;;;;;;10.40;9.00;;;563.40;2432.00;;;;;;4983879;28;20050;-81
2022/08/14 03:38:44;;;;;;;10.27;8.30;;;563.40;2432.00;;;;;;4985909;28;20026;-83
2022/08/14 03:41:28;;;;;;;10.23;8.52;;;563.30;2432.00;;;;;;4987906;28;20047;-80
2022/08/14 03:43:57;;;;;;;10.13;8.40;;;563.30;2432.00;;;;;;4958143;28;20101;-80
2022/08/14 03:46:26;;;;;;;13.75;9.70;;;563.20;2432.00;;;;;;4962235;28;20436;-80
2022/08/14 03:48:55;;;;;;;11.38;9.77;;;563.20;2432.00;;;;;;4968618;28;20065;-81
2022/08/14 03:51:27;;;;;;;11.27;9.40;;;563.20;2432.00;;;;;;4969512;28;20041;-81
2022/08/14 03:53:58;;;;;;;12.85;9.93;;;563.20;2432.00;;;;;;4965436;28;20037;-80
2022/08/14 03:56:26;;;;;;;11.07;8.70;;;563.20;2432.00;;;;;;4998803;28;20110;-80
2022/08/14 03:58:54;;;;;;;10.30;9.20;;;563.30;2432.00;;;;;;4994968;28;20014;-84
2022/08/14 04:01:22;;;;;;;10.60;9.40;;;563.20;2432.00;;;;;;4972127;28;20030;-83
2022/08/14 04:03:49;;;;;;;12.15;9.93;;;563.20;2432.00;;;;;;4968508;28;20014;-83
2022/08/14 04:06:15;;;;;;;11.25;9.55;;;563.20;2432.00;;;;;;4967305;28;20026;-84
2022/08/14 04:08:42;;;;;;;13.20;9.45;;;563.30;2432.00;;;;;;4967187;28;20097;-84
2022/08/14 04:11:09;;;;;;;13.35;9.90;;;563.30;2432.00;;;;;;4982665;28;20038;-80
2022/08/14 04:13:41;;;;;;;11.35;9.43;;;563.30;2432.00;;;;;;4984433;28;20014;-79
2022/08/14 04:16:10;;;;;;;13.30;10.02;;;563.30;2432.00;;;;;;4967869;28;20034;-81
2022/08/14 04:18:40;;;;;;;11.23;9.05;;;563.20;2432.00;;;;;;4969316;28;20066;-80
2022/08/14 04:21:06;;;;;;;11.60;9.93;;;563.20;2432.00;;;;;;4967673;28;20117;-81
2022/08/14 04:23:32;;;;;;;11.75;9.35;;;563.30;2432.00;;;;;;4985142;28;20145;-83
2022/08/14 04:25:59;;;;;;;10.75;9.10;;;563.30;2432.00;;;;;;4966655;28;20027;-85
2022/08/14 04:28:25;;;;;;;13.50;9.23;;;563.30;2432.00;;;;;;5004170;28;20029;-82
2022/08/14 04:30:50;;;;;;;11.05;8.98;;;563.30;2432.00;;;;;;5007637;28;20121;-82
2022/08/14 04:33:16;;;;;;;11.90;10.00;;;563.30;2432.00;;;;;;5006531;28;20061;-85
2022/08/14 04:35:42;;;;;;;13.68;10.60;;;563.20;2432.00;;;;;;5008338;28;20109;-91
2022/08/14 04:43:39;;;;;;;11.98;9.40;;;563.20;2432.00;;;;;;4992139;28;20037;-84
2022/08/14 04:46:10;;;;;;;12.20;9.63;;;563.20;2432.00;;;;;;4965941;28;20035;-87
2022/08/14 04:48:37;;;;;;;10.93;9.75;;;538.50;2406.40;;;;;;4971854;28;20034;-86
2022/08/14 04:51:05;;;;;;;16.20;9.45;;;563.30;2432.00;;;;;;4973499;28;20026;-85
2022/08/14 04:53:32;;;;;;;13.20;9.85;;;563.30;2432.00;;;;;;4989114;28;20096;-81
2022/08/14 04:55:58;;;;;;;12.82;9.52;;;563.30;2432.00;;;;;;4984048;28;20027;-83
2022/08/14 04:58:27;;;;;;;13.40;10.15;;;563.40;2432.00;;;;;;4984204;28;20495;-83
2022/08/14 05:00:54;;;;;;;11.38;9.35;;;563.40;2432.00;;;;;;4984668;28;20049;-80
2022/08/14 05:03:22;;;;;;;11.73;9.38;;;563.40;2432.00;;;;;;4981724;28;20110;-81
2022/08/14 05:05:49;;;;;;;16.65;9.65;;;563.40;2432.00;;;;;;4983322;28;20383;-82
2022/08/14 05:08:16;;;;;;;12.82;9.50;;;563.40;2432.00;;;;;;4965455;28;20027;-82
2022/08/14 05:10:50;;;;;;;11.43;9.38;;;563.40;2432.00;;;;;;4966658;28;20125;-82
2022/08/14 05:13:24;;;;;;;12.30;9.35;;;563.40;2432.00;;;;;;4981760;28;20026;-86
2022/08/14 05:15:52;;;;;;;12.63;9.45;;;563.40;2432.00;;;;;;4965948;28;20084;-80
2022/08/14 05:18:20;;;;;;;11.05;9.52;;;563.40;2432.00;;;;;;4973149;28;20027;-81
2022/08/14 05:20:51;;;;;;;14.23;9.48;;;563.40;2432.00;;;;;;4968077;28;20030;-82
2022/08/14 05:23:23;;;;;;;12.70;9.63;;;563.50;2432.00;;;;;;4966734;28;20022;-85
2022/08/14 05:25:53;;;;;;;11.18;8.93;;;563.40;2432.00;;;;;;4969565;28;20030;-80
2022/08/14 05:28:22;;;;;;;11.27;8.90;;;563.50;2432.00;;;;;;4968502;28;20030;-82
2022/08/14 05:30:52;;;;;;;13.43;8.10;;;563.50;2432.00;;;;;;4975848;28;20443;-83
2022/08/14 05:33:19;;;;;;;12.27;9.52;;;563.50;2432.00;;;;;;4971718;28;20070;-83
2022/08/14 05:35:47;;;;;;;12.40;9.10;;;563.60;2432.00;;;;;;4970563;28;20049;-82
2022/08/14 05:38:15;;;;;;;10.38;8.63;;;563.60;2432.00;;;;;;4972674;28;20505;-86
2022/08/14 05:40:42;;;;;;;12.23;9.38;;;563.60;2432.00;;;;;;4978484;28;20483;-82
2022/08/14 05:43:08;;;;;;;11.30;8.65;;;563.30;2432.00;;;;;;4980158;28;20031;-84
2022/08/14 05:45:34;;;;;;;9.80;8.68;;;563.70;2432.00;;;;;;4970746;28;20023;-82
2022/08/14 05:48:01;;;;;;;11.68;10.07;;;563.50;2432.00;;;;;;4970962;28;20522;-82
2022/08/14 05:50:27;;;;;;;14.90;8.35;;;563.60;2432.00;;;;;;4969434;28;20030;-82
2022/08/14 05:52:53;;;;;;;12.85;8.50;;;563.50;2432.00;;;;;;4986014;28;20033;-81
2022/08/14 05:55:20;;;;;;;10.65;8.80;;;563.60;2432.00;;;;;;4973750;28;20034;-81
2022/08/14 05:57:58;;;;;;;9.93;8.15;;;563.60;2432.00;;;;;;4970072;28;20034;-84
2022/08/14 06:00:30;;;;;;;9.45;8.45;;;563.70;2432.00;;;;;;4969078;28;20065;-83
2022/08/14 06:02:59;;;;;;;9.10;8.10;;;563.70;2432.00;;;;;;5007028;28;20121;-83
2022/08/14 06:05:26;;;;;;;9.73;8.25;;;563.80;2432.00;;;;;;4991706;28;20456;-88
2022/08/14 06:07:52;;;;;;;10.50;8.77;;;563.80;2432.00;;;;;;4995705;28;20108;-80
2022/08/14 06:10:18;;;;;;;10.07;8.00;;;563.80;2432.00;;;;;;4993183;28;20031;-80
2022/08/14 06:12:44;;;;;;;10.73;7.97;;;563.90;2432.00;;;;;;4992523;28;20037;-81
2022/08/14 06:15:10;;;;;;;9.00;7.97;;;564.10;2432.00;;;;;;5011238;28;20050;-79
2022/08/14 06:17:50;;;;;;;9.13;7.85;;;588.80;2432.00;;;;;;4988352;28;20499;-82
2022/08/14 06:20:16;;;;;;;9.32;8.00;;;588.80;2432.00;;;;;;4976933;28;20088;-81
2022/08/14 06:22:44;;;;;;;10.30;8.25;;;588.80;2432.00;;;;;;4987074;28;20037;-83
2022/08/14 06:25:12;;;;;;;14.40;8.25;;;588.90;2432.00;;;;;;4968198;28;20488;-81
2022/08/14 06:27:40;;;;;;;10.10;7.53;;;588.90;2432.00;;;;;;4986548;28;20049;-83
2022/08/14 06:30:08;;;;;;;14.25;8.10;;;588.90;2432.00;;;;;;4959636;28;20062;-78
2022/08/14 06:32:35;;;;;;;10.88;7.65;;;589.00;2432.00;;;;;;4991794;28;20026;-78
2022/08/14 06:35:02;;;;;;;9.30;7.32;;;589.00;2432.00;;;;;;4986632;28;20023;-80
2022/08/14 06:37:40;;;;;;;8.55;7.47;;;589.10;2432.00;;;;;;4992683;28;20057;-83
2022/08/14 06:40:07;;;;;;;11.43;7.45;;;589.10;2432.00;;;;;;5012092;28;20014;-76
2022/08/14 06:42:33;;;;;;;12.13;6.95;;;589.20;2432.00;;;;;;4995643;28;20066;-79
2022/08/14 06:45:00;;;;;;;9.88;7.32;;;589.10;2432.00;;;;;;5007006;28;20029;-79
2022/08/14 06:47:26;;;;;;;9.38;7.05;;;589.00;2432.00;;;;;;4985872;28;20498;-79
2022/08/14 06:49:51;;;;;;;11.82;7.50;;;589.00;2432.00;;;;;;4986566;28;20027;-80
2022/08/14 06:52:17;;;;;;;9.18;7.82;;;588.90;2432.00;;;;;;4989315;28;20042;-81
2022/08/14 06:54:44;;;;;;;8.77;7.28;;;589.00;2432.00;;;;;;5002299;28;20484;-83
2022/08/14 06:57:10;;;;;;;12.00;7.57;;;589.00;2432.00;;;;;;4988563;28;20495;-82
2022/08/14 06:59:36;;;;;;;8.32;6.78;;;589.20;2432.00;;;;;;4999646;28;20080;-81
2022/08/14 07:05:46;;;;;;;10.93;7.63;;;589.30;2432.00;;;;;;4996386;28;20037;-84
2022/08/14 07:07:40;;;;;;;8.18;6.90;;;589.40;2432.00;;;;;;4986142;28;20096;-82
2022/08/14 07:10:08;;;;;;;8.98;7.15;;;589.50;2432.00;;;;;;4994990;28;20030;-82
2022/08/14 07:12:34;;;;;;;8.40;7.07;;;589.40;2432.00;;;;;;4992572;28;20045;-83
2022/08/14 07:15:00;;;;;;;11.98;7.53;;;589.50;2432.00;;;;;;4994512;28;20026;-84
2022/08/14 07:17:26;;;;;;;7.68;6.30;;;589.60;2432.00;;;;;;4985874;28;20038;-83
2022/08/14 07:19:52;;;;;;;8.40;6.80;;;589.70;2432.00;;;;;;4976879;28;20022;-84
2022/08/14 07:22:18;;;;;;;10.15;6.82;;;589.70;2432.00;;;;;;4976560;28;20130;-87
2022/08/14 07:24:44;;;;;;;12.20;7.07;;;589.70;2432.00;;;;;;5003790;28;20088;-84
2022/08/14 07:27:09;;;;;;;11.50;7.38;;;614.40;2432.00;;;;;;4996754;28;20065;-84
2022/08/14 07:29:35;;;;;;;8.05;7.05;;;614.40;2432.00;;;;;;4978125;28;20094;-83
2022/08/14 07:32:01;;;;;;;8.15;6.68;;;614.50;2432.00;;;;;;4977519;28;20084;-84
2022/08/14 07:34:26;;;;;;;10.30;6.72;;;614.50;2432.00;;;;;;4977085;28;20045;-85
2022/08/14 07:36:54;;;;;;;7.85;6.80;;;614.50;2432.00;;;;;;4970252;28;20041;-84
2022/08/14 07:39:20;;;;;;;10.23;7.13;;;614.50;2432.00;;;;;;4978135;28;20389;-85
2022/08/14 07:41:46;;;;;;;11.73;7.18;;;614.50;2432.00;;;;;;4974506;28;20131;-87
2022/08/14 07:44:12;;;;;;;10.73;7.03;;;614.60;2432.00;;;;;;4975618;28;20028;-81
2022/08/14 07:46:41;;;;;;;8.63;7.32;;;614.70;2432.00;;;;;;4971738;28;20552;-83
2022/08/14 07:49:08;;;;;;;10.20;7.80;;;614.70;2432.00;;;;;;4974191;28;20026;-80
2022/08/14 07:51:36;;;;;;;7.63;6.68;;;614.70;2432.00;;;;;;4964673;28;20042;-85
2022/08/14 07:54:03;;;;;;;7.78;6.82;;;614.70;2432.00;;;;;;4985979;28;20027;-85
2022/08/14 07:56:28;;;;;;;9.40;7.72;;;614.80;2432.00;;;;;;4974395;28;20105;-79
2022/08/14 07:58:54;;;;;;;11.48;8.63;;;614.70;2432.00;;;;;;4984978;28;20073;-83
2022/08/14 08:01:20;;;;;;;8.05;7.07;;;614.70;2432.00;;;;;;4984430;28;20528;-83
2022/08/14 08:03:48;;;;;;;8.73;7.50;;;614.70;2432.00;;;;;;4993379;28;20010;-83
2022/08/14 08:06:16;;;;;;;11.90;7.93;;;614.60;2432.00;;;;;;4988933;28;20018;-81
2022/08/14 08:08:43;;;;;;;14.98;8.00;;;614.60;2432.00;;;;;;4974301;28;20028;-83
2022/08/14 08:11:11;;;;;;;9.52;7.15;;;614.50;2432.00;;;;;;4982853;28;20101;-83
2022/08/14 08:13:41;;;;;;;9.40;8.38;;;614.50;2432.00;;;;;;4974923;28;20081;-82
2022/08/14 08:16:07;;;;;;;8.18;7.38;;;614.40;2432.00;;;;;;4996610;28;20035;-82
2022/08/14 08:18:33;;;;;;;13.48;8.35;;;614.40;2432.00;;;;;;4973708;28;20065;-81
2022/08/14 08:20:59;;;;;;;10.82;7.75;;;614.40;2432.00;;;;;;4975222;28;20098;-85
2022/08/14 08:23:28;;;;;;;11.18;7.30;;;614.40;2432.00;;;;;;4986040;28;20027;-85
2022/08/14 08:25:54;;;;;;;10.93;7.35;;;614.50;2432.00;;;;;;4979225;28;20035;-83
2022/08/14 08:28:26;;;;;;;10.68;7.43;;;614.50;2432.00;;;;;;4985675;28;20117;-85
2022/08/14 08:30:55;;;;;;;8.95;7.65;;;614.50;2432.00;;;;;;4984582;28;20088;-88
2022/08/14 08:33:26;;;;;;;9.18;7.05;;;614.50;2432.00;;;;;;4996018;28;20031;-86
2022/08/14 08:35:56;;;;;;;12.02;7.60;;;614.50;2432.00;;;;;;4983311;28;20022;-84
2022/08/14 08:38:24;;;;;;;8.75;7.85;;;614.50;2432.00;;;;;;4982649;28;20072;-84
2022/08/14 08:40:52;;;;;;;13.63;7.97;;;614.60;2432.00;;;;;;4985298;28;20172;-84
2022/08/14 08:43:30;;;;;;;10.93;7.80;;;614.60;2432.00;;;;;;4987553;28;20018;-84
2022/08/14 08:46:10;;;;;;;10.18;7.65;;;614.70;2432.00;;;;;;4987576;28;20084;-84
2022/08/14 08:48:46;;;;;;;10.48;7.28;;;614.80;2432.00;;;;;;4990388;28;20045;-83
2022/08/14 08:51:25;;;;;;;12.25;9.05;;;614.80;2432.00;;;;;;4985010;28;20037;-84
2022/08/14 08:54:13;;;;;;;8.38;7.50;;;614.80;2432.00;;;;;;4986101;28;20110;-85
2022/08/14 08:56:51;;;;;;;10.07;7.82;;;614.90;2432.00;;;;;;5002693;28;20030;-83
2022/08/14 08:59:21;;;;;;;11.48;7.95;;;615.00;2432.00;;;;;;5005253;28;20029;-83
2022/08/14 09:01:56;;;;;;;14.10;8.20;;;615.00;2432.00;;;;;;4990135;28;20105;-83
2022/08/14 09:04:24;;;;;;;10.32;7.68;;;615.00;2432.00;;;;;;4991702;28;20018;-83
2022/08/14 09:06:50;;;;;;;11.98;8.05;;;615.00;2432.00;;;;;;4988513;28;20053;-83
2022/08/14 09:09:25;;;;;;;14.32;8.43;;;615.00;2432.00;;;;;;4991004;28;20025;-83
2022/08/14 09:11:55;;;;;;;10.23;7.90;;;615.00;2432.00;;;;;;4990445;28;20048;-83
2022/08/14 09:14:21;;;;;;;12.18;8.05;;;615.10;2432.00;;;;;;4989852;28;20041;-84
2022/08/14 09:16:50;;;;;;;11.07;8.00;;;615.10;2432.00;;;;;;4989304;28;20034;-84
2022/08/14 09:19:16;;;;;;;11.93;7.72;;;615.10;2432.00;;;;;;4990774;28;20075;-84
2022/08/14 09:21:42;;;;;;;9.18;7.85;;;615.10;2432.00;;;;;;4985076;28;20038;-84
2022/08/14 09:24:08;;;;;;;9.45;7.57;;;615.10;2432.00;;;;;;4991210;28;20026;-85
2022/08/14 09:26:35;;;;;;;11.20;8.20;;;615.10;2432.00;;;;;;4990550;28;20045;-84
2022/08/14 09:29:03;;;;;;;9.38;8.38;;;615.30;2432.00;;;;;;4989428;28;20027;-81
2022/08/14 09:31:29;;;;;;;11.73;8.23;;;615.30;2432.00;;;;;;4991864;28;20031;-82
2022/08/14 09:34:04;;;;;;;11.52;7.57;;;615.10;2432.00;;;;;;4994738;28;20022;-82
2022/08/14 09:36:35;;;;;;;18.50;7.78;;;615.30;2432.00;;;;;;4987376;28;20109;-84
2022/08/14 09:39:10;;;;;;;10.55;8.88;;;640.00;2432.00;;;;;;4987201;28;20042;-82
2022/08/14 09:42:01;;;;;;;11.55;7.47;;;640.00;2432.00;;;;;;4987572;28;20046;-83
2022/08/14 09:44:39;;;;;;;8.45;7.55;;;640.00;2432.00;;;;;;4976621;28;20061;-82
2022/08/14 09:47:04;;;;;;;12.48;8.70;;;640.00;2432.00;;;;;;4978015;28;20495;-82
2022/08/14 09:49:35;;;;;;;10.18;8.52;;;640.10;2432.00;;;;;;4993136;28;20022;-81
2022/08/14 09:52:09;;;;;;;11.77;8.25;;;640.20;2432.00;;;;;;4991515;28;20037;-82
2022/08/14 09:54:43;;;;;;;9.52;7.82;;;640.30;2432.00;;;;;;4989415;28;20022;-80
2022/08/14 09:57:24;;;;;;;11.68;9.45;;;640.30;2432.00;;;;;;4986404;28;20022;-82
2022/08/14 09:59:50;;;;;;;13.98;8.32;;;640.60;2432.00;;;;;;5001813;28;20101;-83
2022/08/14 10:02:25;;;;;;;13.43;9.05;;;640.70;2432.00;;;;;;4997261;28;20049;-81
2022/08/14 10:05:10;;;;;;;10.18;8.68;;;640.90;2432.00;;;;;;5003658;28;20475;-81
2022/08/14 10:07:52;;;;;;;12.63;8.82;;;665.70;2432.00;;;;;;5004757;28;20062;-82
2022/08/14 10:10:40;;;;;;;10.98;8.93;;;665.90;2432.00;;;;;;4987145;28;20084;-83
2022/08/14 10:13:19;;;;;;;10.95;9.05;;;666.30;2432.00;;;;;;5005947;28;20030;-82
2022/08/14 10:15:47;;;;;;;10.73;8.80;;;691.30;2432.00;;;;;;4989641;28;20033;-82
2022/08/14 10:18:17;;;;;;;10.18;8.73;;;691.40;2432.00;;;;;;4987845;28;20121;-83
2022/08/14 10:20:59;;;;;;;9.57;8.57;;;691.50;2432.00;;;;;;4990442;28;20033;-82
2022/08/14 10:23:41;;;;;;;14.32;7.85;;;691.70;2432.00;;;;;;4989113;28;20432;-82
2022/08/14 10:26:08;;;;;;;10.55;8.88;;;691.90;2432.00;;;;;;4989134;28;20065;-82
2022/08/14 10:28:43;;;;;;;10.25;8.55;;;692.10;2432.00;;;;;;4975181;28;20117;-79
2022/08/14 10:31:21;;;;;;;11.35;8.18;;;716.80;2432.00;;;;;;4979358;28;20066;-77
2022/08/14 10:34:08;;;;;;;10.35;7.85;;;717.00;2432.00;;;;;;4994851;28;20097;-87
2022/08/14 10:36:40;;;;;;;10.57;8.38;;;717.20;2432.00;;;;;;4994030;28;20109;-83
2022/08/14 10:39:26;;;;;;;9.23;7.95;;;717.20;2432.00;;;;;;4978194;28;20022;-79
2022/08/14 10:42:05;;;;;;;;;;;717.20;2432.00;;;;;;4978578;28;20046;-86
2022/08/14 10:44:46;;;;;;;9.07;8.00;;;717.40;2406.40;;;;;;4995769;28;20346;-82
2022/08/14 10:47:13;;;;;;;10.35;7.53;;;717.50;2329.60;;;;;;4995675;28;20527;-79
2022/08/14 10:49:48;;;;;;;10.00;7.80;;;717.70;2278.40;;;;;;4995362;28;20030;-79
2022/08/14 10:52:26;;;;;;;10.55;7.95;;;742.50;2278.40;;;;;;4977881;28;20042;-79
2022/08/14 10:55:07;;;;;;;10.48;8.27;;;742.70;2227.20;;;;;;4995317;28;20022;-82
2022/08/14 10:57:34;;;;;;;9.98;7.47;;;742.90;2201.60;;;;;;4995451;28;20507;-79
2022/08/14 11:00:12;;;;;;;9.57;8.07;;;742.70;2201.60;;;;;;4994053;28;20026;-82
2022/08/14 11:02:40;;;;;;;8.50;7.45;;;742.80;2150.40;;;;;;4977960;28;20022;-83
2022/08/14 11:05:12;;;;;;;8.65;7.60;;;742.40;2227.20;;;;;;5005529;28;20026;-82
2022/08/14 11:07:53;;;;;;;10.13;7.90;;;717.70;2201.60;;;;;;4987896;28;20487;-82
2022/08/14 11:10:19;;;;;;;14.63;7.78;;;717.50;2227.20;;;;;;4978064;28;20544;-82
2022/08/14 11:12:49;;;;;;;12.73;8.63;;;717.60;2227.20;;;;;;4991218;28;20511;-74
2022/08/14 11:15:18;;;;;;;7.95;7.03;;;717.70;2227.20;;;;;;4986118;28;20030;-76
2022/08/14 11:17:46;;;;;;;10.88;7.70;;;742.60;2150.40;;;;;;4994750;28;20042;-77
2022/08/14 11:20:14;;;;;;;10.95;7.07;;;742.80;2150.40;;;;;;4999284;28;20392;-79
2022/08/14 11:22:41;;;;;;;10.02;7.70;;;743.00;2099.20;;;;;;5008337;28;20062;-82
2022/08/14 11:25:12;;;;;;;9.27;7.30;;;743.20;2073.60;;;;;;4983691;28;20049;-80
2022/08/14 11:27:41;;;;;;;8.85;7.40;;;768.00;2048.00;;;;;;4988960;28;20022;-78
2022/08/14 11:30:11;;;;;;;9.82;6.65;;;768.30;1996.80;;;;;;5009587;28;20362;-77
2022/08/14 11:32:48;;;;;;;8.93;7.00;;;768.40;1945.60;;;;;;5007301;28;20033;-78
2022/08/14 11:35:16;;;;;;;9.15;7.28;;;768.70;1920.00;;;;;;5006297;28;20030;-78
2022/08/14 11:37:52;;;;;;;11.77;7.80;;;768.60;1868.80;;;;;;4987591;28;20034;-79
2022/08/14 11:40:19;;;;;;;8.80;6.72;;;768.70;1843.20;;;;;;4987171;28;20198;-77
2022/08/14 11:42:54;;;;;;;12.75;7.75;;;793.70;1868.80;;;;;;4983276;28;20046;-80
2022/08/14 11:45:24;;;;;;;11.73;7.55;;;793.80;1817.60;;;;;;4975002;28;20037;-77
2022/08/14 11:47:54;;;;;;;9.65;6.68;;;793.90;1792.00;;;;;;4969530;28;20034;-80
2022/08/14 11:50:29;;;;;;;7.40;6.03;;;793.70;1792.00;;;;;;5003497;28;20024;-77
2022/08/14 11:52:56;;;;;;;10.30;6.68;;;794.00;1766.40;;;;;;5000688;28;20053;-80
2022/08/14 11:55:25;;;;;;;7.95;6.78;;;794.10;1715.20;;;;;;5003038;28;20021;-78
2022/08/14 11:58:08;;;;;;;7.85;6.47;;;794.20;1715.20;;;;;;5000404;28;20045;-79
2022/08/14 12:00:48;;;;;;;8.10;5.60;;;794.20;1715.20;;;;;;5003331;28;20014;-79
2022/08/14 12:03:14;;;;;;;7.53;6.70;;;794.50;1664.00;;;;;;4983799;28;20027;-79
2022/08/14 12:05:41;;;;;;;12.18;6.88;;;794.50;1664.00;;;;;;5002564;28;20026;-78
2022/08/14 12:08:08;;;;;;;10.27;5.90;;;819.20;1689.60;;;;;;5004427;28;20101;-78
2022/08/14 12:10:42;;;;;;;7.72;6.13;;;794.50;1638.40;;;;;;4985548;28;20105;-79
2022/08/14 12:13:19;;;;;;;7.00;5.85;;;819.30;1638.40;;;;;;4984509;28;20042;-77
2022/08/14 12:15:55;;;;;;;8.95;6.03;;;819.50;1587.20;;;;;;5002378;28;20035;-78
2022/08/14 12:18:34;;;;;;;11.95;6.18;;;819.40;1561.60;;;;;;4985315;28;20105;-80
2022/08/14 12:21:18;;;;;;;5.95;5.35;;;819.60;1587.20;;;;;;4986276;28;20022;-79
2022/08/14 12:23:46;;;;;;;11.43;6.25;;;819.70;1561.60;;;;;;4986726;28;20395;-80
2022/08/14 12:26:19;;;;;;;6.28;5.68;;;819.60;1561.60;;;;;;4982868;28;20534;-79
2022/08/14 12:28:50;;;;;;;8.38;5.93;;;819.70;1536.00;;;;;;5002343;28;20033;-81
2022/08/14 12:31:20;;;;;;;7.65;6.60;;;819.60;1536.00;;;;;;4985563;28;20030;-79